Time;durP1;ratioP1;P1;durP2;ratioP2;P2;SDS_P1;SDS_P2;PMS_P1;PMS_P2;Temp;Humidity;BMP_temperature;BMP_pressure;BME280_temperature;BME280_humidity;BME280_pressure;Samples;Min_cycle;Max_cycle;Signal;HPM_P1;HPM_P2
2021/11/25 00:00:34;;;;;;;30.98;6.82;;;22.20;99.90;;;;;;5032596;28;20030;-68
2021/11/25 00:03:02;;;;;;;119.90;18.48;;;22.20;99.90;;;;;;5055212;28;20422;-68
2021/11/25 00:05:29;;;;;;;93.75;15.40;;;22.30;99.90;;;;;;5029130;28;20065;-67
2021/11/25 00:07:57;;;;;;;53.90;10.55;;;22.50;99.90;;;;;;5039255;28;20060;-67
2021/11/25 00:10:24;;;;;;;32.83;7.32;;;22.50;99.90;;;;;;5050637;28;20043;-67
2021/11/25 00:12:55;;;;;;;85.93;11.93;;;22.60;99.90;;;;;;5041717;28;20041;-67
2021/11/25 00:15:22;;;;;;;20.00;5.78;;;22.60;99.90;;;;;;5033456;28;20432;-67
2021/11/25 00:17:50;;;;;;;30.35;7.75;;;22.50;99.90;;;;;;5028013;28;20037;-66
2021/11/25 00:20:18;;;;;;;14.25;5.38;;;22.70;99.90;;;;;;5048007;28;20022;-67
2021/11/25 00:22:45;;;;;;;21.35;6.80;;;22.60;99.90;;;;;;5032048;28;20099;-66
2021/11/25 00:25:13;;;;;;;17.75;6.07;;;22.80;99.90;;;;;;5030009;28;20091;-67
2021/11/25 00:27:41;;;;;;;35.63;7.22;;;22.70;99.90;;;;;;5030992;28;20061;-67
2021/11/25 00:30:10;;;;;;;10.57;5.72;;;22.70;99.90;;;;;;5030645;28;20120;-67
2021/11/25 00:32:39;;;;;;;25.70;7.15;;;22.70;99.90;;;;;;5034483;28;20116;-65
2021/11/25 00:35:07;;;;;;;10.55;5.50;;;22.90;99.90;;;;;;5034487;28;20087;-66
2021/11/25 00:37:35;;;;;;;11.25;5.13;;;22.90;99.90;;;;;;5035476;28;20389;-66
2021/11/25 00:40:02;;;;;;;11.88;6.07;;;22.90;99.90;;;;;;5051861;28;20032;-67
2021/11/25 00:42:30;;;;;;;5.20;4.70;;;23.00;99.90;;;;;;5049571;28;20029;-66
2021/11/25 00:44:57;;;;;;;7.97;4.97;;;22.90;99.90;;;;;;5051278;28;20033;-67
2021/11/25 00:47:24;;;;;;;5.97;4.82;;;23.00;99.90;;;;;;5033094;28;20029;-67
2021/11/25 00:49:51;;;;;;;6.43;4.80;;;23.00;99.90;;;;;;5033130;28;20090;-66
2021/11/25 00:52:19;;;;;;;9.07;4.95;;;23.10;99.90;;;;;;5037949;28;20026;-67
2021/11/25 00:54:47;;;;;;;5.18;4.65;;;23.20;99.90;;;;;;5042702;28;20040;-67
2021/11/25 00:57:14;;;;;;;9.70;5.10;;;23.10;99.90;;;;;;5040115;28;20103;-67
2021/11/25 00:59:41;;;;;;;7.00;4.57;;;23.20;99.90;;;;;;5044020;28;20029;-67
2021/11/25 01:02:08;;;;;;;5.03;4.63;;;23.30;99.90;;;;;;5035097;28;20033;-68
2021/11/25 01:04:36;;;;;;;6.60;5.28;;;23.20;99.90;;;;;;5028447;28;20032;-67
2021/11/25 01:07:03;;;;;;;6.55;4.60;;;23.20;99.90;;;;;;5030903;28;20152;-67
2021/11/25 01:09:30;;;;;;;5.65;5.05;;;23.30;99.90;;;;;;5039472;28;20025;-68
2021/11/25 01:12:01;;;;;;;28.67;8.77;;;23.40;99.90;;;;;;5041088;28;20017;-68
2021/11/25 01:14:30;;;;;;;8.65;5.10;;;23.40;99.90;;;;;;5051153;28;20056;-68
2021/11/25 01:16:58;;;;;;;11.75;4.45;;;23.50;99.90;;;;;;5043563;28;20036;-68
2021/11/25 01:19:26;;;;;;;15.25;4.43;;;23.50;99.90;;;;;;5032115;28;20029;-68
2021/11/25 01:21:53;;;;;;;11.85;4.13;;;23.50;99.90;;;;;;5018438;28;20049;-68
2021/11/25 01:24:21;;;;;;;17.63;3.72;;;23.50;99.90;;;;;;5031387;28;20033;-68
2021/11/25 01:26:49;;;;;;;11.20;3.72;;;23.50;99.90;;;;;;5027603;28;20021;-68
2021/11/25 01:29:16;;;;;;;15.60;4.55;;;23.50;99.90;;;;;;5048923;28;20029;-67
2021/11/25 01:31:43;;;;;;;14.73;4.13;;;23.40;99.90;;;;;;5033651;28;20029;-67
2021/11/25 01:34:11;;;;;;;9.10;4.20;;;23.70;99.90;;;;;;5037374;28;20116;-68
2021/11/25 01:36:38;;;;;;;9.90;4.20;;;23.80;99.90;;;;;;5032050;28;20048;-68
2021/11/25 01:39:06;;;;;;;15.07;5.57;;;23.80;99.90;;;;;;5033641;28;20029;-68
2021/11/25 01:41:33;;;;;;;8.45;4.45;;;23.70;99.90;;;;;;5037308;28;20041;-68
2021/11/25 01:44:00;;;;;;;14.00;4.35;;;23.80;99.90;;;;;;5032592;28;20083;-68
2021/11/25 01:46:28;;;;;;;8.30;3.75;;;24.00;99.90;;;;;;5041477;28;20053;-68
2021/11/25 01:48:55;;;;;;;11.45;4.00;;;24.10;99.90;;;;;;5058416;28;20104;-68
2021/11/25 01:51:24;;;;;;;15.20;3.95;;;24.20;99.90;;;;;;5046703;28;20040;-67
2021/11/25 01:53:52;;;;;;;11.85;3.75;;;24.30;99.90;;;;;;5042027;28;20036;-67
2021/11/25 01:56:22;;;;;;;14.07;3.80;;;24.40;99.90;;;;;;5047221;28;20108;-67
2021/11/25 01:58:50;;;;;;;12.38;4.13;;;24.40;99.90;;;;;;5028234;28;20463;-67
2021/11/25 02:01:21;;;;;;;13.90;4.18;;;24.20;99.90;;;;;;5041669;28;20029;-67
2021/11/25 02:03:51;;;;;;;9.82;3.00;;;24.20;99.90;;;;;;5050591;28;20017;-67
2021/11/25 02:06:19;;;;;;;10.32;4.82;;;24.10;99.90;;;;;;5048282;28;20394;-67
2021/11/25 02:08:46;;;;;;;11.65;3.70;;;24.10;99.90;;;;;;5042161;28;20033;-67
2021/11/25 02:11:14;;;;;;;8.93;3.60;;;24.00;99.90;;;;;;5044928;28;20021;-67
2021/11/25 02:13:41;;;;;;;8.75;4.43;;;24.00;99.90;;;;;;5047167;28;20425;-67
2021/11/25 02:16:09;;;;;;;13.82;3.95;;;24.10;99.90;;;;;;5047295;28;20057;-67
2021/11/25 02:18:36;;;;;;;9.02;3.40;;;24.00;99.90;;;;;;5050134;28;20033;-67
2021/11/25 02:21:05;;;;;;;7.72;3.50;;;24.10;99.90;;;;;;5052196;28;20111;-67
2021/11/25 02:23:32;;;;;;;12.82;4.15;;;23.90;99.90;;;;;;5059757;28;20013;-67
2021/11/25 02:26:00;;;;;;;12.32;3.45;;;23.90;99.90;;;;;;5054791;28;20025;-67
2021/11/25 02:28:34;;;;;;;10.60;3.60;;;23.80;99.90;;;;;;5067596;28;20040;-67
2021/11/25 02:31:01;;;;;;;13.65;3.70;;;23.80;99.90;;;;;;5068845;28;20030;-67
2021/11/25 02:33:29;;;;;;;12.85;3.65;;;23.60;99.90;;;;;;5054804;28;20041;-67
2021/11/25 02:35:57;;;;;;;14.55;4.00;;;23.50;99.90;;;;;;5047995;28;20068;-67
2021/11/25 02:38:24;;;;;;;22.27;4.07;;;23.40;99.90;;;;;;5062982;28;20033;-68
2021/11/25 02:40:56;;;;;;;13.40;4.15;;;23.40;99.90;;;;;;5034611;28;20014;-68
2021/11/25 02:43:27;;;;;;;22.73;4.75;;;23.40;99.90;;;;;;5057527;28;20040;-67
2021/11/25 02:46:07;;;;;;;20.73;4.97;;;23.40;99.90;;;;;;5073363;28;20026;-67
2021/11/25 02:48:53;;;;;;;10.50;4.57;;;23.30;99.90;;;;;;5063947;28;20020;-67
2021/11/25 02:51:23;;;;;;;16.80;4.30;;;23.40;99.90;;;;;;5054327;28;20044;-67
2021/11/25 02:53:51;;;;;;;14.20;4.15;;;23.40;99.90;;;;;;5056478;28;20032;-67
2021/11/25 02:56:24;;;;;;;14.75;4.25;;;23.30;99.90;;;;;;5069757;28;20021;-67
2021/11/25 02:58:55;;;;;;;12.20;4.38;;;23.20;99.90;;;;;;5057360;28;20030;-67
2021/11/25 03:01:36;;;;;;;12.02;4.28;;;23.20;99.90;;;;;;5058696;28;20021;-67
2021/11/25 03:04:05;;;;;;;13.35;4.57;;;23.30;99.90;;;;;;5050479;28;20070;-67
2021/11/25 03:06:36;;;;;;;17.50;4.75;;;23.20;99.90;;;;;;5061337;28;20022;-67
2021/11/25 03:09:06;;;;;;;14.13;4.75;;;23.20;99.90;;;;;;5050897;28;20056;-67
2021/11/25 03:11:34;;;;;;;15.20;4.97;;;23.10;99.90;;;;;;5049076;28;20083;-67
2021/11/25 03:14:06;;;;;;;14.77;3.85;;;23.00;99.90;;;;;;5061208;28;20400;-67
2021/11/25 03:16:34;;;;;;;15.95;4.70;;;23.00;99.90;;;;;;5061045;28;20045;-67
2021/11/25 03:19:02;;;;;;;13.65;4.13;;;23.10;99.90;;;;;;5060316;28;20044;-67
2021/11/25 03:21:30;;;;;;;13.82;4.25;;;23.10;99.90;;;;;;5056845;28;20440;-66
2021/11/25 03:23:58;;;;;;;11.60;4.57;;;23.10;99.90;;;;;;5061014;28;20030;-66
2021/11/25 03:26:26;;;;;;;14.35;3.95;;;23.10;99.90;;;;;;5062896;28;20068;-67
2021/11/25 03:28:56;;;;;;;18.80;5.07;;;23.00;99.90;;;;;;5054972;28;20030;-67
2021/11/25 03:31:27;;;;;;;12.82;4.55;;;23.10;99.90;;;;;;5047749;28;20081;-67
2021/11/25 03:33:57;;;;;;;13.15;4.45;;;23.10;99.90;;;;;;5080754;28;20132;-67
2021/11/25 03:36:25;;;;;;;15.38;4.47;;;23.10;99.90;;;;;;5049982;28;20059;-67
2021/11/25 03:38:54;;;;;;;11.77;4.28;;;23.20;99.90;;;;;;5048518;28;20097;-67
2021/11/25 03:41:22;;;;;;;14.75;4.82;;;23.40;99.90;;;;;;5059017;28;20026;-66
2021/11/25 03:43:50;;;;;;;23.38;5.55;;;23.30;99.90;;;;;;5035519;28;20024;-67
2021/11/25 03:46:18;;;;;;;11.40;4.40;;;23.40;99.90;;;;;;5060020;28;20047;-66
2021/11/25 03:48:45;;;;;;;12.88;3.95;;;23.40;99.90;;;;;;5054778;28;20470;-67
2021/11/25 03:51:13;;;;;;;18.23;5.63;;;23.50;99.90;;;;;;5045733;28;20018;-67
2021/11/25 03:53:43;;;;;;;20.90;4.40;;;23.50;99.90;;;;;;5044693;28;20033;-67
2021/11/25 03:56:12;;;;;;;23.42;5.07;;;23.40;99.90;;;;;;5064467;28;20041;-67
2021/11/25 03:58:39;;;;;;;13.80;4.25;;;23.30;99.90;;;;;;5067325;28;20014;-66
2021/11/25 04:01:07;;;;;;;14.45;4.65;;;23.40;99.90;;;;;;5046188;28;20033;-67
2021/11/25 04:03:35;;;;;;;22.75;5.55;;;23.20;99.90;;;;;;5068479;28;20512;-67
2021/11/25 04:06:03;;;;;;;18.13;5.45;;;23.20;99.90;;;;;;5050377;28;20025;-67
2021/11/25 04:08:31;;;;;;;15.30;4.45;;;23.20;99.90;;;;;;5054572;28;20134;-67
2021/11/25 04:10:58;;;;;;;12.60;4.03;;;23.20;99.90;;;;;;5046077;28;20017;-67
2021/11/25 04:13:25;;;;;;;16.02;4.53;;;23.30;99.90;;;;;;5060042;28;20044;-67
2021/11/25 04:15:53;;;;;;;16.48;4.13;;;23.40;99.90;;;;;;5064506;28;20025;-66
2021/11/25 04:18:20;;;;;;;17.30;4.40;;;23.40;99.90;;;;;;5065638;28;20085;-67
2021/11/25 04:20:48;;;;;;;16.80;3.67;;;23.50;99.90;;;;;;5059971;28;20056;-67
2021/11/25 04:23:15;;;;;;;10.15;3.17;;;23.50;99.90;;;;;;5060723;28;20017;-68
2021/11/25 04:25:43;;;;;;;13.02;3.85;;;23.50;99.90;;;;;;5067225;28;20025;-67
2021/11/25 04:28:10;;;;;;;13.57;3.47;;;23.50;99.90;;;;;;5053075;28;20025;-68
2021/11/25 04:35:50;;;;;;;11.02;2.75;;;23.60;99.90;;;;;;5044512;28;20040;-68
2021/11/25 04:38:21;;;;;;;9.35;2.75;;;23.60;99.90;;;;;;5038525;28;20021;-68
2021/11/25 04:40:56;;;;;;;5.90;2.20;;;23.70;99.90;;;;;;5043696;28;20087;-68
2021/11/25 04:43:25;;;;;;;9.02;2.72;;;23.60;99.90;;;;;;5037749;28;20030;-68
2021/11/25 04:45:54;;;;;;;8.55;3.13;;;23.50;99.90;;;;;;5039000;28;20045;-70
2021/11/25 04:48:23;;;;;;;6.95;2.65;;;23.50;99.90;;;;;;5038009;28;20099;-69
2021/11/25 04:50:52;;;;;;;7.03;2.75;;;23.40;99.90;;;;;;5046837;28;20021;-67
2021/11/25 04:53:19;;;;;;;9.88;2.40;;;23.30;99.90;;;;;;5051141;28;20029;-67
2021/11/25 04:55:47;;;;;;;13.98;3.45;;;23.30;99.90;;;;;;5059548;28;20029;-63
2021/11/25 04:58:14;;;;;;;8.60;2.63;;;23.30;99.90;;;;;;5058552;28;20029;-63
2021/11/25 05:00:42;;;;;;;9.68;3.72;;;23.20;99.90;;;;;;5053985;28;20018;-62
2021/11/25 05:03:10;;;;;;;8.43;2.92;;;23.20;99.90;;;;;;5060795;28;20017;-65
2021/11/25 05:05:37;;;;;;;9.70;2.80;;;23.30;99.90;;;;;;5058503;28;20033;-65
2021/11/25 05:08:05;;;;;;;8.23;2.40;;;23.30;99.90;;;;;;5067304;28;20010;-64
2021/11/25 05:10:33;;;;;;;10.18;3.08;;;23.40;99.90;;;;;;5073127;28;20063;-63
2021/11/25 05:13:00;;;;;;;9.07;2.40;;;23.50;99.90;;;;;;5060752;28;20028;-63
2021/11/25 05:15:27;;;;;;;11.98;3.08;;;23.40;99.90;;;;;;5076883;28;20039;-63
2021/11/25 05:17:55;;;;;;;10.93;2.40;;;23.40;99.90;;;;;;5076412;28;20009;-67
2021/11/25 05:20:22;;;;;;;11.55;3.10;;;23.40;99.90;;;;;;5056247;28;20029;-68
2021/11/25 05:22:50;;;;;;;8.90;2.38;;;23.40;99.90;;;;;;5062790;28;20018;-68
2021/11/25 05:25:18;;;;;;;11.63;3.38;;;23.40;99.90;;;;;;5057086;28;20030;-67
2021/11/25 05:27:47;;;;;;;9.98;2.40;;;23.40;99.90;;;;;;5054999;28;20021;-67
2021/11/25 05:30:15;;;;;;;10.45;2.78;;;23.30;99.90;;;;;;5075322;28;20021;-67
2021/11/25 05:32:43;;;;;;;9.20;2.78;;;23.30;99.90;;;;;;5056944;28;20032;-67
2021/11/25 05:35:12;;;;;;;12.15;3.35;;;23.20;99.90;;;;;;5059142;28;20024;-67
2021/11/25 05:37:41;;;;;;;13.38;2.78;;;23.10;99.90;;;;;;5055620;28;20125;-67
2021/11/25 05:40:13;;;;;;;8.57;3.70;;;23.00;99.90;;;;;;5055457;28;20009;-66
2021/11/25 05:42:40;;;;;;;14.70;4.95;;;23.00;99.90;;;;;;5056974;28;20085;-66
2021/11/25 05:45:10;;;;;;;11.32;3.58;;;23.00;99.90;;;;;;5058251;28;20064;-67
2021/11/25 05:47:39;;;;;;;7.25;3.40;;;23.00;99.90;;;;;;5057397;28;20037;-67
2021/11/25 05:50:09;;;;;;;11.10;3.75;;;22.80;99.90;;;;;;5056723;28;20029;-67
2021/11/25 05:52:38;;;;;;;11.13;3.35;;;22.80;99.90;;;;;;5056590;28;20020;-67
2021/11/25 05:55:07;;;;;;;14.38;3.33;;;22.90;99.90;;;;;;5055678;28;20009;-67
2021/11/25 05:57:34;;;;;;;12.35;3.08;;;22.80;99.90;;;;;;5057789;28;20017;-67
2021/11/25 06:00:03;;;;;;;12.73;3.35;;;22.70;99.90;;;;;;5058908;28;20014;-67
2021/11/25 06:02:30;;;;;;;12.30;2.97;;;22.70;99.90;;;;;;5056006;28;20060;-67
2021/11/25 06:04:58;;;;;;;9.25;3.33;;;22.70;99.90;;;;;;5052159;28;20030;-68
2021/11/25 06:07:25;;;;;;;14.77;3.35;;;22.70;99.90;;;;;;5064515;28;20021;-68
2021/11/25 06:09:52;;;;;;;12.05;3.20;;;22.60;99.90;;;;;;5085167;28;20382;-68
2021/11/25 06:12:19;;;;;;;12.45;4.15;;;22.60;99.90;;;;;;5054804;28;20030;-68
2021/11/25 06:14:47;;;;;;;14.13;3.35;;;22.60;99.90;;;;;;5055136;28;20518;-68
2021/11/25 06:17:14;;;;;;;9.85;2.80;;;22.50;99.90;;;;;;5061697;28;20578;-68
2021/11/25 06:19:41;;;;;;;17.48;3.78;;;22.50;99.90;;;;;;5073047;28;20025;-68
2021/11/25 06:22:08;;;;;;;10.60;3.50;;;22.50;99.90;;;;;;5056357;28;20030;-67
2021/11/25 06:24:36;;;;;;;15.93;3.70;;;22.50;99.90;;;;;;5054701;28;20047;-68
2021/11/25 06:27:03;;;;;;;13.38;4.05;;;22.50;99.90;;;;;;5048920;28;20018;-67
2021/11/25 06:29:31;;;;;;;10.25;3.92;;;22.50;99.90;;;;;;5036459;28;20156;-66
2021/11/25 06:31:58;;;;;;;17.08;3.88;;;22.50;99.90;;;;;;5031979;28;20083;-66
2021/11/25 06:34:25;;;;;;;12.95;3.28;;;22.50;99.90;;;;;;5035092;28;20037;-65
2021/11/25 06:36:52;;;;;;;11.70;4.22;;;22.40;99.90;;;;;;5034186;28;20048;-67
2021/11/25 06:39:20;;;;;;;22.85;4.50;;;22.40;99.90;;;;;;5033925;28;20196;-66
2021/11/25 06:41:47;;;;;;;17.35;4.18;;;22.30;99.90;;;;;;5032261;28;20028;-66
2021/11/25 06:44:14;;;;;;;16.73;4.07;;;22.30;99.90;;;;;;5048378;28;20053;-67
2021/11/25 06:46:41;;;;;;;20.05;4.38;;;22.30;99.90;;;;;;5046017;28;20117;-66
2021/11/25 06:49:09;;;;;;;10.02;3.00;;;22.20;99.90;;;;;;5031018;28;20025;-67
2021/11/25 06:51:36;;;;;;;18.58;4.43;;;22.20;99.90;;;;;;5035190;28;20044;-66
2021/11/25 06:54:03;;;;;;;19.02;5.05;;;22.30;99.90;;;;;;5033778;28;20033;-67
2021/11/25 06:56:31;;;;;;;22.83;5.28;;;22.20;99.90;;;;;;5034693;28;20040;-67
2021/11/25 06:58:58;;;;;;;22.48;6.78;;;22.20;99.90;;;;;;5031772;28;20029;-66
2021/11/25 07:01:25;;;;;;;25.58;5.05;;;22.10;99.90;;;;;;5030426;28;20041;-68
2021/11/25 07:03:52;;;;;;;18.52;4.40;;;22.10;99.90;;;;;;5030836;28;20029;-67
2021/11/25 07:06:20;;;;;;;19.95;5.53;;;22.00;99.90;;;;;;5024227;28;20025;-67
2021/11/25 07:08:47;;;;;;;19.75;4.93;;;22.00;99.90;;;;;;5032951;28;20078;-68
2021/11/25 07:11:14;;;;;;;17.77;5.18;;;22.00;99.90;;;;;;5043452;28;20093;-67
2021/11/25 07:13:42;;;;;;;16.33;5.15;;;22.00;99.90;;;;;;5039645;28;20047;-67
2021/11/25 07:16:09;;;;;;;24.77;4.55;;;22.00;99.90;;;;;;5031131;28;20036;-68
2021/11/25 07:18:36;;;;;;;23.00;6.22;;;22.00;99.90;;;;;;5039642;28;20125;-68
2021/11/25 07:21:04;;;;;;;19.55;4.38;;;22.00;99.90;;;;;;5052712;28;20040;-68
2021/11/25 07:23:31;;;;;;;20.48;5.22;;;21.90;99.90;;;;;;5041317;28;20021;-67
2021/11/25 07:25:58;;;;;;;20.27;6.28;;;21.90;99.90;;;;;;5065921;28;20033;-68
2021/11/25 07:28:26;;;;;;;22.33;5.22;;;21.80;99.90;;;;;;5032144;28;20076;-68
2021/11/25 07:30:53;;;;;;;18.77;4.85;;;21.90;99.90;;;;;;5033301;28;20478;-68
2021/11/25 07:33:20;;;;;;;16.92;5.00;;;21.80;99.90;;;;;;5034358;28;20038;-68
2021/11/25 07:35:48;;;;;;;18.80;4.70;;;21.80;99.90;;;;;;5049185;28;20557;-68
2021/11/25 07:38:16;;;;;;;17.67;5.25;;;21.90;99.90;;;;;;5034127;28;20109;-68
2021/11/25 07:40:48;;;;;;;15.52;3.97;;;21.90;99.90;;;;;;5045891;28;20013;-67
2021/11/25 07:43:16;;;;;;;21.15;4.75;;;21.80;99.90;;;;;;5036336;28;20104;-68
2021/11/25 07:45:43;;;;;;;18.40;4.43;;;21.80;99.90;;;;;;5033241;28;20045;-68
2021/11/25 07:48:12;;;;;;;15.93;4.55;;;21.80;99.90;;;;;;5051356;28;20029;-69
2021/11/25 07:50:40;;;;;;;18.05;4.70;;;21.70;99.90;;;;;;5036038;28;20034;-68
2021/11/25 07:53:08;;;;;;;19.20;4.60;;;21.70;99.90;;;;;;5037061;28;20120;-69
2021/11/25 07:55:35;;;;;;;18.38;4.28;;;21.70;99.90;;;;;;5054644;28;20481;-69
2021/11/25 07:58:03;;;;;;;26.35;5.28;;;21.80;99.90;;;;;;5036181;28;20060;-69
2021/11/25 08:00:31;;;;;;;29.90;5.55;;;21.70;99.90;;;;;;5048737;28;20040;-69
2021/11/25 08:02:59;;;;;;;20.33;5.55;;;21.80;99.90;;;;;;5055278;28;20086;-69
2021/11/25 08:05:27;;;;;;;16.67;4.68;;;21.70;99.90;;;;;;5052352;28;20029;-69
2021/11/25 08:07:57;;;;;;;17.25;5.03;;;21.70;99.90;;;;;;5041481;28;20493;-69
2021/11/25 08:10:28;;;;;;;20.73;5.10;;;21.70;99.90;;;;;;5048953;28;20033;-69
2021/11/25 08:13:03;;;;;;;17.73;5.13;;;21.70;99.90;;;;;;5034339;28;20048;-69
2021/11/25 08:15:34;;;;;;;17.00;4.32;;;21.70;99.90;;;;;;5035261;28;20037;-69
2021/11/25 08:18:02;;;;;;;15.73;3.35;;;21.70;99.90;;;;;;5047258;28;20071;-69
2021/11/25 08:20:30;;;;;;;19.02;3.92;;;21.70;99.90;;;;;;5054416;28;20032;-68
2021/11/25 08:22:57;;;;;;;18.70;4.57;;;21.70;99.90;;;;;;5053152;28;20052;-68
2021/11/25 08:25:25;;;;;;;20.55;4.05;;;21.60;99.90;;;;;;5037338;28;20037;-69
2021/11/25 08:27:59;;;;;;;28.17;5.15;;;21.70;99.90;;;;;;5038903;28;20087;-68
2021/11/25 08:30:29;;;;;;;16.02;4.07;;;21.60;99.90;;;;;;5059916;28;20508;-69
2021/11/25 08:32:56;;;;;;;21.40;4.85;;;21.60;99.90;;;;;;5035097;28;20025;-69
2021/11/25 08:35:24;;;;;;;14.98;3.92;;;21.60;99.90;;;;;;5036994;28;20052;-69
2021/11/25 08:37:52;;;;;;;21.15;4.32;;;21.60;99.90;;;;;;5044121;28;20091;-69
2021/11/25 08:40:20;;;;;;;19.30;4.15;;;21.60;99.90;;;;;;5039566;28;20021;-69
2021/11/25 08:42:48;;;;;;;19.95;4.47;;;21.60;99.90;;;;;;5041635;28;20032;-69
2021/11/25 08:45:18;;;;;;;15.85;4.07;;;21.60;99.90;;;;;;5043966;28;20538;-69
2021/11/25 08:47:46;;;;;;;15.45;4.15;;;21.60;99.90;;;;;;5028633;28;20481;-69
2021/11/25 08:50:15;;;;;;;19.92;4.10;;;21.60;99.90;;;;;;5041023;28;20018;-69
2021/11/25 08:52:43;;;;;;;13.23;3.25;;;21.60;99.90;;;;;;5043832;28;20036;-69
2021/11/25 08:55:10;;;;;;;21.45;4.25;;;21.50;99.90;;;;;;5054232;28;20480;-69
2021/11/25 08:57:39;;;;;;;18.83;4.63;;;21.50;99.90;;;;;;5042734;28;20037;-69
2021/11/25 09:00:09;;;;;;;22.40;4.65;;;21.50;99.90;;;;;;5035118;28;20058;-68
2021/11/25 09:02:37;;;;;;;16.75;4.07;;;21.50;99.90;;;;;;5050034;28;20057;-69
2021/11/25 09:05:06;;;;;;;19.35;3.78;;;21.50;99.90;;;;;;5054556;28;20036;-68
2021/11/25 09:07:34;;;;;;;20.17;4.35;;;21.50;99.90;;;;;;5033210;28;20032;-68
2021/11/25 09:10:01;;;;;;;19.27;4.47;;;21.50;99.90;;;;;;5066405;28;20049;-68
2021/11/25 09:12:28;;;;;;;22.83;4.38;;;21.40;99.90;;;;;;5049730;28;20049;-68
2021/11/25 09:14:56;;;;;;;21.98;4.38;;;21.40;99.90;;;;;;5043309;28;20082;-68
2021/11/25 09:17:23;;;;;;;18.10;4.72;;;21.40;99.90;;;;;;5046010;28;20068;-68
2021/11/25 09:19:50;;;;;;;18.55;4.45;;;21.40;99.90;;;;;;5052897;28;20391;-68
2021/11/25 09:22:17;;;;;;;17.98;3.97;;;21.40;99.90;;;;;;5052018;28;20083;-68
2021/11/25 09:24:46;;;;;;;21.98;4.50;;;21.50;99.90;;;;;;5043110;28;20021;-68
2021/11/25 09:27:13;;;;;;;20.10;4.63;;;21.50;99.90;;;;;;5035177;28;20029;-68
2021/11/25 09:29:40;;;;;;;13.60;4.10;;;21.50;99.90;;;;;;5058920;28;20033;-68
2021/11/25 09:32:07;;;;;;;18.45;4.70;;;21.50;99.90;;;;;;5032525;28;20386;-68
2021/11/25 09:34:35;;;;;;;20.63;5.30;;;21.40;99.90;;;;;;5056470;28;20503;-68
2021/11/25 09:37:02;;;;;;;17.98;4.78;;;21.40;99.90;;;;;;5026899;28;20032;-68
2021/11/25 09:39:30;;;;;;;17.75;4.10;;;21.50;99.90;;;;;;5035750;28;20034;-68
2021/11/25 09:41:58;;;;;;;20.77;4.32;;;21.40;99.90;;;;;;5033855;28;20036;-69
2021/11/25 09:44:26;;;;;;;15.35;4.15;;;21.40;99.90;;;;;;5032994;28;20029;-69
2021/11/25 09:46:56;;;;;;;18.35;4.68;;;21.40;99.90;;;;;;5038335;28;20057;-69
2021/11/25 09:49:25;;;;;;;17.48;4.10;;;21.40;99.90;;;;;;5022828;28;20025;-69
2021/11/25 09:51:54;;;;;;;16.10;3.78;;;21.40;99.90;;;;;;5033552;28;20030;-69
2021/11/25 09:54:22;;;;;;;17.00;3.92;;;21.40;99.90;;;;;;5033291;28;20081;-69
2021/11/25 09:56:51;;;;;;;22.20;3.90;;;21.40;99.90;;;;;;5034220;28;20125;-69
2021/11/25 09:59:19;;;;;;;14.68;4.55;;;21.40;99.90;;;;;;5043342;28;20013;-69
2021/11/25 10:01:47;;;;;;;20.77;4.18;;;21.40;99.90;;;;;;5053203;28;20032;-69
2021/11/25 10:04:14;;;;;;;17.65;4.38;;;21.40;99.90;;;;;;5044705;28;20041;-69
2021/11/25 10:06:56;;;;;;;15.75;3.90;;;21.50;99.90;;;;;;5035179;28;20095;-69
2021/11/25 10:09:30;;;;;;;10.55;3.47;;;21.40;99.90;;;;;;5030168;28;20044;-69
2021/11/25 10:11:58;;;;;;;12.38;4.53;;;21.50;99.90;;;;;;5031794;28;20072;-69
2021/11/25 10:14:37;;;;;;;14.40;3.92;;;21.50;99.90;;;;;;5040231;28;20125;-69
2021/11/25 10:17:05;;;;;;;14.38;4.25;;;21.50;99.90;;;;;;5044529;28;20048;-69
2021/11/25 10:19:33;;;;;;;19.63;4.68;;;21.50;99.90;;;;;;5063402;28;20025;-69
2021/11/25 10:22:08;;;;;;;15.18;4.82;;;21.50;99.90;;;;;;5041417;28;20037;-69
2021/11/25 10:24:40;;;;;;;21.02;5.40;;;21.50;99.90;;;;;;5033290;28;20028;-70
2021/11/25 10:27:22;;;;;;;21.08;6.07;;;21.50;99.90;;;;;;5036478;28;20473;-69
2021/11/25 10:30:08;;;;;;;19.65;5.60;;;21.50;99.90;;;;;;5037496;28;20500;-69
2021/11/25 10:32:35;;;;;;;18.90;5.13;;;21.50;99.90;;;;;;5039681;28;20037;-69
2021/11/25 10:35:29;;;;;;;16.23;4.55;;;21.50;99.90;;;;;;5042503;28;20105;-69
2021/11/25 10:40:36;;;;;;;12.55;3.70;;;21.40;99.90;;;;;;5042277;28;20062;-67
2021/11/25 10:43:25;;;;;;;15.70;3.60;;;21.50;99.90;;;;;;5031854;28;20014;-68
2021/11/25 10:45:54;;;;;;;9.90;3.88;;;21.40;99.90;;;;;;5033480;28;20088;-68
2021/11/25 10:48:32;;;;;;;10.18;3.83;;;21.40;99.90;;;;;;5034064;28;20389;-69
2021/11/25 10:50:59;;;;;;;13.88;3.97;;;21.40;99.90;;;;;;5032362;28;20147;-69
2021/11/25 10:53:27;;;;;;;15.63;3.58;;;21.40;99.90;;;;;;5030923;28;20171;-69
2021/11/25 10:56:07;;;;;;;18.58;4.70;;;21.40;99.90;;;;;;5032147;28;20052;-69
2021/11/25 10:58:51;;;;;;;19.13;4.20;;;21.30;99.90;;;;;;5034534;28;20389;-69
2021/11/25 11:01:37;;;;;;;21.10;4.40;;;21.30;99.90;;;;;;5032198;28;20021;-69
2021/11/25 11:04:05;;;;;;;21.25;5.07;;;21.30;99.90;;;;;;5031832;28;20033;-68
2021/11/25 11:06:35;;;;;;;18.75;5.05;;;21.20;99.90;;;;;;5031628;28;20473;-69
2021/11/25 11:09:04;;;;;;;23.27;4.88;;;21.20;99.90;;;;;;5031975;28;20029;-69
2021/11/25 11:11:34;;;;;;;23.80;6.47;;;21.20;99.90;;;;;;5032006;28;20061;-69
2021/11/25 11:16:50;;;;;;;22.52;5.20;;;21.10;99.90;;;;;;5031768;28;20068;-69
2021/11/25 11:19:17;;;;;;;24.42;4.75;;;21.10;99.90;;;;;;5046959;28;20393;-69
2021/11/25 11:21:51;;;;;;;25.48;4.50;;;21.00;99.90;;;;;;5029640;28;20029;-69
2021/11/25 11:24:24;;;;;;;23.27;4.90;;;21.00;99.90;;;;;;5031954;28;20159;-69
2021/11/25 11:26:56;;;;;;;24.00;5.53;;;21.00;99.90;;;;;;5032071;28;20029;-69
2021/11/25 11:29:35;;;;;;;21.10;4.57;;;21.00;99.90;;;;;;5030659;28;20034;-69
2021/11/25 11:32:05;;;;;;;25.02;4.95;;;21.00;99.90;;;;;;5031784;28;20104;-69
2021/11/25 11:34:33;;;;;;;24.00;5.28;;;21.00;99.90;;;;;;5030597;28;20033;-69
2021/11/25 11:37:02;;;;;;;20.13;4.55;;;21.00;99.90;;;;;;5020316;28;20022;-69
2021/11/25 11:39:32;;;;;;;14.80;3.67;;;21.00;99.90;;;;;;5032206;28;20025;-69
2021/11/25 11:42:02;;;;;;;12.25;3.13;;;21.00;99.90;;;;;;5045627;28;20028;-69
2021/11/25 11:44:30;;;;;;;19.13;3.72;;;21.00;99.90;;;;;;5046759;28;20381;-69
2021/11/25 11:47:07;;;;;;;15.80;3.00;;;21.00;99.90;;;;;;5029912;28;20068;-69
2021/11/25 11:49:36;;;;;;;19.05;4.28;;;21.00;99.90;;;;;;5036883;28;20026;-69
2021/11/25 11:52:15;;;;;;;18.52;4.07;;;20.90;99.90;;;;;;5038916;28;20354;-69
2021/11/25 11:54:50;;;;;;;13.30;3.83;;;20.90;99.90;;;;;;5051009;28;20032;-69
2021/11/25 11:57:33;;;;;;;12.77;3.50;;;21.00;99.90;;;;;;5033015;28;20021;-69
2021/11/25 12:00:05;;;;;;;13.05;3.65;;;21.00;99.90;;;;;;5051246;28;20449;-69
2021/11/25 12:02:44;;;;;;;14.50;4.18;;;20.90;99.90;;;;;;5046537;28;20049;-69
2021/11/25 12:05:32;;;;;;;14.13;4.85;;;20.90;99.90;;;;;;5034562;28;20057;-69
2021/11/25 12:08:24;;;;;;;20.77;4.15;;;20.90;99.90;;;;;;5033554;28;20109;-69
2021/11/25 12:10:57;;;;;;;12.93;4.38;;;21.00;99.90;;;;;;5043808;28;20041;-69
2021/11/25 12:13:27;;;;;;;20.40;4.47;;;21.00;99.90;;;;;;5046127;28;20033;-69
2021/11/25 12:16:16;;;;;;;18.60;5.10;;;21.00;99.90;;;;;;5056715;28;20029;-69
2021/11/25 12:19:04;;;;;;;19.27;4.57;;;21.00;99.90;;;;;;5028844;28;20037;-69
2021/11/25 12:21:40;;;;;;;25.95;4.70;;;21.10;99.90;;;;;;5041962;28;20493;-69
2021/11/25 12:24:23;;;;;;;21.40;4.72;;;21.10;99.90;;;;;;5049794;28;20104;-69
2021/11/25 12:27:18;;;;;;;17.20;4.95;;;21.10;99.90;;;;;;5050713;28;20029;-69
2021/11/25 12:30:08;;;;;;;17.65;4.13;;;21.10;99.90;;;;;;5038275;28;21054;-69
2021/11/25 12:32:44;;;;;;;18.35;5.15;;;21.10;99.90;;;;;;5034827;28;20029;-69
2021/11/25 12:35:14;;;;;;;16.48;3.88;;;21.10;99.90;;;;;;5035034;28;20040;-69
2021/11/25 12:37:47;;;;;;;14.70;4.15;;;21.10;99.90;;;;;;5052592;28;20040;-69
2021/11/25 12:40:18;;;;;;;14.75;5.35;;;21.10;99.90;;;;;;5052858;28;20571;-69
2021/11/25 12:42:51;;;;;;;26.50;5.93;;;21.10;99.90;;;;;;5054156;28;20132;-69
2021/11/25 12:45:40;;;;;;;19.33;4.47;;;21.10;99.90;;;;;;5053987;28;20072;-69
2021/11/25 12:48:11;;;;;;;16.55;4.10;;;21.10;99.90;;;;;;5028615;28;20075;-68
2021/11/25 12:50:50;;;;;;;20.13;4.10;;;21.10;99.90;;;;;;5044521;28;20123;-68
2021/11/25 12:53:20;;;;;;;16.35;4.32;;;21.10;99.90;;;;;;5034539;28;20045;-69
2021/11/25 12:56:18;;;;;;;16.48;4.05;;;21.10;99.90;;;;;;5034256;28;20033;-69
2021/11/25 12:59:01;;;;;;;16.20;4.40;;;21.10;99.90;;;;;;5042279;28;20385;-69
2021/11/25 13:01:42;;;;;;;17.67;4.78;;;21.00;99.90;;;;;;5036625;28;20549;-69